Time;durP1;ratioP1;P1;durP2;ratioP2;P2;SDS_P1;SDS_P2;PMS_P1;PMS_P2;Temp;Humidity;BMP_temperature;BMP_pressure;BME280_temperature;BME280_humidity;BME280_pressure;Samples;Min_cycle;Max_cycle;Signal;HPM_P1;HPM_P2
2022/11/14 00:01:55;;;;;;;25.05;10.70;;;;;;;6.80;100.00;101742.63;6174983;28;20513;-75
2022/11/14 00:04:57;;;;;;;30.67;12.10;;;;;;;6.80;100.00;101731.31;6174843;28;20811;-75
2022/11/14 00:08:00;;;;;;;28.95;12.55;;;;;;;6.79;100.00;101732.22;6175487;28;20392;-74
2022/11/14 00:11:01;;;;;;;32.45;11.02;;;;;;;6.74;100.00;101726.22;6174715;28;20054;-74
2022/11/14 00:14:02;;;;;;;25.88;10.75;;;;;;;6.75;100.00;101730.56;6175120;28;20426;-74
2022/11/14 00:17:05;;;;;;;28.85;11.00;;;;;;;6.79;100.00;101732.22;6175065;28;20054;-74
2022/11/14 00:20:09;;;;;;;32.92;11.60;;;;;;;6.76;100.00;101727.03;6174595;28;20047;-74
2022/11/14 00:23:12;;;;;;;26.40;11.27;;;;;;;6.76;100.00;101719.19;6174765;28;20418;-74
2022/11/14 00:26:13;;;;;;;34.75;12.50;;;;;;;6.78;100.00;101717.44;6174922;28;20053;-74
2022/11/14 00:29:15;;;;;;;30.17;11.75;;;;;;;6.77;100.00;101727.03;6174759;28;20491;-74
2022/11/14 00:32:17;;;;;;;27.80;10.70;;;;;;;6.80;100.00;101719.09;6174349;28;20491;-75
2022/11/14 00:35:18;;;;;;;30.13;12.45;;;;;;;6.78;100.00;101710.44;6174363;28;20058;-76
2022/11/14 00:38:21;;;;;;;32.58;12.05;;;;;;;6.74;100.00;101710.56;6174683;28;20430;-74
2022/11/14 00:41:23;;;;;;;30.80;12.90;;;;;;;6.70;100.00;101699.31;6174038;28;20182;-74
2022/11/14 00:44:25;;;;;;;43.40;14.32;;;;;;;6.65;100.00;101708.16;6174118;28;20399;-75
2022/11/14 00:47:26;;;;;;;33.78;12.98;;;;;;;6.63;100.00;101704.69;6174534;28;20051;-74
2022/11/14 00:50:27;;;;;;;28.60;10.65;;;;;;;6.61;100.00;101699.50;6174028;28;20503;-74
2022/11/14 00:53:30;;;;;;;32.65;12.18;;;;;;;6.60;100.00;101693.44;6174451;28;20415;-74
2022/11/14 00:56:32;;;;;;;38.88;12.68;;;;;;;6.65;100.00;101692.47;6173872;28;20524;-74
2022/11/14 00:59:33;;;;;;;30.20;11.05;;;;;;;6.65;100.00;101689.88;6173919;28;20047;-74
2022/11/14 01:02:34;;;;;;;37.60;12.98;;;;;;;6.66;100.00;101688.97;6173858;28;20503;-75
2022/11/14 01:05:40;;;;;;;35.83;13.27;;;;;;;6.68;100.00;101681.97;6173575;28;20054;-74
2022/11/14 01:08:44;;;;;;;29.67;11.73;;;;;;;6.63;100.00;101675.97;6174139;28;20155;-74
2022/11/14 01:11:45;;;;;;;27.80;11.38;;;;;;;6.60;100.00;101682.97;6173607;28;20051;-74
2022/11/14 01:14:47;;;;;;;37.28;13.45;;;;;;;6.58;100.00;101670.84;6173667;28;20667;-74
2022/11/14 01:17:48;;;;;;;31.98;12.45;;;;;;;6.57;100.00;101671.75;6174026;28;20054;-74
2022/11/14 01:20:50;;;;;;;33.10;11.95;;;;;;;6.57;100.00;101676.97;6173246;28;20495;-75
2022/11/14 01:23:53;;;;;;;33.15;12.65;;;;;;;6.54;100.00;101669.19;6173507;28;20062;-74
2022/11/14 01:26:54;;;;;;;35.60;11.70;;;;;;;6.56;100.00;101668.28;6174035;28;20182;-74
2022/11/14 01:29:56;;;;;;;30.77;12.02;;;;;;;6.59;100.00;101672.59;6173299;28;20534;-75
2022/11/14 01:32:57;;;;;;;31.70;11.77;;;;;;;6.60;100.00;101664.69;6173941;28;20046;-74
2022/11/14 01:35:59;;;;;;;32.80;11.48;;;;;;;6.63;100.00;101665.50;6173396;28;20046;-74
2022/11/14 01:39:02;;;;;;;29.67;11.32;;;;;;;6.63;100.00;101657.69;6173432;28;20051;-74
2022/11/14 01:42:04;;;;;;;25.63;10.75;;;;;;;6.58;100.00;101656.03;6172967;28;20047;-74
2022/11/14 01:45:39;;;;;;;21.98;9.38;;;;;;;6.56;100.00;101646.53;6173174;28;20047;-74
2022/11/14 01:48:44;;;;;;;30.83;10.70;;;;;;;6.60;100.00;101635.13;6171373;28;20051;-74
2022/11/14 01:51:48;;;;;;;27.60;10.95;;;;;;;6.57;100.00;101629.94;6172997;28;20046;-75
2022/11/14 01:54:53;;;;;;;35.22;11.68;;;;;;;6.56;100.00;101636.06;6173122;28;20050;-74
2022/11/14 01:57:56;;;;;;;30.25;11.65;;;;;;;6.54;100.00;101627.41;6173351;28;20062;-74
2022/11/14 02:00:59;;;;;;;33.53;12.30;;;;;;;6.56;100.00;101618.66;6172944;28;20434;-74
2022/11/14 02:04:01;;;;;;;27.20;11.02;;;;;;;6.57;100.00;101615.13;6172785;28;20051;-74
2022/11/14 02:07:04;;;;;;;32.25;11.38;;;;;;;6.59;100.00;101612.53;6173275;28;20050;-74
2022/11/14 02:10:09;;;;;;;32.90;11.88;;;;;;;6.61;100.00;101610.72;6172825;28;20054;-74
2022/11/14 02:13:11;;;;;;;33.60;12.18;;;;;;;6.56;100.00;101607.34;6176456;28;20046;-74
2022/11/14 02:16:12;;;;;;;31.90;11.32;;;;;;;6.56;100.00;101595.16;6177355;28;20424;-74
2022/11/14 02:19:15;;;;;;;23.33;10.43;;;;;;;6.60;100.00;101596.81;6177803;28;20051;-75
2022/11/14 02:22:18;;;;;;;22.35;10.80;;;;;;;6.57;100.00;101596.00;6177318;28;20047;-74
2022/11/14 02:25:20;;;;;;;26.77;10.88;;;;;;;6.56;100.00;101595.16;6177308;28;20050;-74
2022/11/14 02:28:22;;;;;;;25.00;10.68;;;;;;;6.53;100.00;101600.44;6177675;28;20125;-75
2022/11/14 02:31:23;;;;;;;29.20;11.25;;;;;;;6.53;100.00;101613.50;6177259;28;20047;-74
2022/11/14 02:34:25;;;;;;;31.38;12.68;;;;;;;6.52;100.00;101600.47;6177196;28;20055;-75
2022/11/14 02:37:28;;;;;;;26.02;10.55;;;;;;;6.53;100.00;101581.31;6177554;28;20054;-74
2022/11/14 02:40:29;;;;;;;31.63;12.30;;;;;;;6.53;100.00;101582.16;6176909;28;20047;-74
2022/11/14 02:43:30;;;;;;;26.70;10.77;;;;;;;6.61;100.00;101582.00;6177218;28;20557;-75
2022/11/14 02:46:32;;;;;;;28.95;13.10;;;;;;;6.57;100.00;101572.50;6176958;28;20062;-74
2022/11/14 02:49:33;;;;;;;30.50;12.18;;;;;;;6.50;100.00;101568.34;6176836;28;20073;-74
2022/11/14 02:52:36;;;;;;;36.38;12.52;;;;;;;6.49;100.00;101567.44;6176356;28;20057;-74
2022/11/14 02:55:37;;;;;;;35.13;11.32;;;;;;;6.53;100.00;101568.25;6176231;28;20522;-74
2022/11/14 02:58:39;;;;;;;29.63;11.00;;;;;;;6.55;100.00;101564.72;6177038;28;20110;-75
2022/11/14 03:01:40;;;;;;;19.65;9.82;;;;;;;6.54;100.00;101562.13;6149944;28;20047;-74
2022/11/14 03:04:41;;;;;;;28.67;12.00;;;;;;;6.54;100.00;101555.16;6152529;28;20054;-74
2022/11/14 03:07:44;;;;;;;30.30;11.40;;;;;;;6.53;100.00;101550.81;6167605;28;20051;-75
2022/11/14 03:10:46;;;;;;;32.47;13.13;;;;;;;6.54;100.00;101541.22;6176016;28;20418;-75
2022/11/14 03:13:47;;;;;;;27.90;11.40;;;;;;;6.55;100.00;101537.75;6176268;28;20051;-73
2022/11/14 03:16:48;;;;;;;32.30;11.38;;;;;;;6.52;100.00;101536.06;6176724;28;20054;-74
2022/11/14 03:19:50;;;;;;;32.03;11.77;;;;;;;6.52;100.00;101550.88;6176067;28;20525;-74
2022/11/14 03:22:53;;;;;;;30.88;11.57;;;;;;;6.54;100.00;101531.66;6176296;28;20043;-74
2022/11/14 03:25:54;;;;;;;33.28;11.38;;;;;;;6.52;100.00;101528.22;6176146;28;20058;-74
2022/11/14 03:28:56;;;;;;;29.65;12.20;;;;;;;6.53;100.00;101534.28;6176268;28;20054;-74
2022/11/14 03:31:57;;;;;;;26.10;10.82;;;;;;;6.55;100.00;101529.91;6176100;28;20047;-73
2022/11/14 03:34:58;;;;;;;28.10;10.82;;;;;;;6.53;100.00;101524.72;6175714;28;20047;-74
2022/11/14 03:38:01;;;;;;;40.83;12.35;;;;;;;6.53;100.00;101527.31;6176059;28;20446;-73
2022/11/14 03:41:02;;;;;;;30.85;11.48;;;;;;;6.48;100.00;101515.28;6175663;28;20055;-74
2022/11/14 03:44:04;;;;;;;31.25;11.27;;;;;;;6.46;100.00;101511.84;6175833;28;20062;-73
2022/11/14 03:47:05;;;;;;;26.70;11.32;;;;;;;6.48;100.00;101515.28;6175811;28;20047;-74
2022/11/14 03:50:08;;;;;;;37.85;11.10;;;;;;;6.50;100.00;101513.50;6175644;28;20065;-74
2022/11/14 03:53:11;;;;;;;31.55;11.20;;;;;;;6.52;100.00;101515.16;6175820;28;20053;-74
2022/11/14 03:56:12;;;;;;;28.73;11.32;;;;;;;6.51;100.00;101520.44;6175132;28;20047;-73
2022/11/14 03:59:14;;;;;;;40.30;13.02;;;;;;;6.50;100.00;101513.50;6175107;28;20051;-74
2022/11/14 04:02:15;;;;;;;29.35;11.82;;;;;;;6.45;100.00;101520.56;6174358;28;20058;-77
2022/11/14 04:05:17;;;;;;;31.77;10.82;;;;;;;6.46;100.00;101514.47;6175287;28;20061;-74
2022/11/14 04:08:19;;;;;;;21.20;10.05;;;;;;;6.46;100.00;101517.06;6175261;28;20054;-74
2022/11/14 04:11:21;;;;;;;31.75;10.70;;;;;;;6.47;100.00;101516.19;6174892;28;20650;-74
2022/11/14 04:14:22;;;;;;;24.13;10.57;;;;;;;6.45;100.00;101503.16;6174824;28;20046;-74
2022/11/14 04:17:24;;;;;;;21.40;9.50;;;;;;;6.43;100.00;101510.16;6175431;28;20050;-75
2022/11/14 04:20:25;;;;;;;27.35;11.27;;;;;;;6.42;100.00;101505.00;6174376;28;20050;-74
2022/11/14 04:23:28;;;;;;;27.88;11.02;;;;;;;6.42;100.00;101491.94;6175062;28;20062;-75
2022/11/14 04:26:30;;;;;;;26.40;10.45;;;;;;;6.43;100.00;101494.50;6174596;28;20050;-75
2022/11/14 04:29:31;;;;;;;31.52;11.85;;;;;;;6.42;100.00;101484.09;6174779;28;20054;-74
2022/11/14 04:32:32;;;;;;;24.52;10.38;;;;;;;6.44;100.00;101477.94;6174568;28;20050;-75
2022/11/14 04:35:34;;;;;;;22.90;8.75;;;;;;;6.45;100.00;101469.22;6173902;28;20059;-75
2022/11/14 04:38:38;;;;;;;36.50;10.43;;;;;;;6.48;100.00;101469.13;6174688;28;20430;-74
2022/11/14 04:41:39;;;;;;;34.28;11.80;;;;;;;6.44;100.00;101462.28;6173975;28;20415;-73
2022/11/14 04:44:41;;;;;;;22.92;10.55;;;;;;;6.43;100.00;101460.56;6174365;28;20050;-75
2022/11/14 04:47:42;;;;;;;27.33;10.77;;;;;;;6.43;100.00;101457.09;6174384;28;20054;-74
2022/11/14 04:50:45;;;;;;;34.38;11.02;;;;;;;6.42;100.00;101461.47;6174218;28;20062;-75
2022/11/14 04:53:48;;;;;;;26.20;10.13;;;;;;;6.41;100.00;101464.97;6173858;28;20047;-74
2022/11/14 04:56:49;;;;;;;33.55;11.48;;;;;;;6.39;100.00;101469.34;6174386;28;20047;-74
2022/11/14 04:59:51;;;;;;;34.05;11.35;;;;;;;6.40;100.00;101470.22;6173811;28;20055;-75
2022/11/14 05:02:52;;;;;;;25.55;9.77;;;;;;;6.42;100.00;101469.28;6174297;28;20058;-74
2022/11/14 05:05:54;;;;;;;27.13;11.05;;;;;;;6.41;100.00;101474.56;6173866;28;20066;-75
2022/11/14 05:08:56;;;;;;;31.38;11.95;;;;;;;6.40;100.00;101468.47;6174085;28;20062;-75
2022/11/14 05:11:58;;;;;;;33.35;12.18;;;;;;;6.40;100.00;101465.84;6173844;28;20058;-75
2022/11/14 05:15:00;;;;;;;29.65;11.15;;;;;;;6.40;100.00;101454.56;6173621;28;20053;-75
2022/11/14 05:18:01;;;;;;;28.13;10.60;;;;;;;6.39;100.00;101453.69;6174281;28;20522;-75
2022/11/14 05:21:03;;;;;;;28.95;10.35;;;;;;;6.39;100.00;101455.44;6173301;28;20043;-73
2022/11/14 05:24:06;;;;;;;33.25;11.13;;;;;;;6.34;100.00;101450.34;6173618;28;20054;-75
2022/11/14 05:27:07;;;;;;;31.83;11.38;;;;;;;6.37;100.00;101438.97;6173787;28;20446;-74
2022/11/14 05:30:10;;;;;;;33.80;11.23;;;;;;;6.36;100.00;101440.75;6173655;28;20051;-74
2022/11/14 05:33:12;;;;;;;32.50;10.95;;;;;;;6.40;100.00;101437.13;6173716;28;20050;-75
2022/11/14 05:36:15;;;;;;;25.20;10.65;;;;;;;6.42;100.00;101422.31;6173286;28;20400;-75
2022/11/14 05:39:18;;;;;;;30.95;10.73;;;;;;;6.43;100.00;101425.75;6173709;28;20069;-75
2022/11/14 05:42:19;;;;;;;32.72;10.73;;;;;;;6.38;100.00;101423.28;6173371;28;20046;-75
2022/11/14 05:45:21;;;;;;;27.60;11.90;;;;;;;6.37;100.00;101418.09;6173323;28;20058;-74
2022/11/14 05:48:22;;;;;;;25.45;11.15;;;;;;;6.37;100.00;101421.56;6177557;28;20054;-74
2022/11/14 05:51:23;;;;;;;34.78;12.02;;;;;;;6.31;100.00;101417.38;6178206;28;20055;-74
2022/11/14 05:54:26;;;;;;;29.98;12.43;;;;;;;6.28;100.00;101412.22;6177964;28;20151;-75
2022/11/14 05:57:28;;;;;;;35.83;11.98;;;;;;;6.32;100.00;101416.47;6178353;28;20521;-74
2022/11/14 06:00:29;;;;;;;28.63;10.35;;;;;;;6.34;100.00;101425.09;6177876;28;20059;-74
2022/11/14 06:03:32;;;;;;;31.70;11.25;;;;;;;6.32;100.00;101429.50;6178411;28;20054;-74
2022/11/14 06:06:34;;;;;;;39.53;11.98;;;;;;;6.29;100.00;101426.97;6177642;28;20058;-75
2022/11/14 06:09:36;;;;;;;31.00;11.60;;;;;;;6.26;100.00;101431.41;6178225;28;20051;-74
2022/11/14 06:12:38;;;;;;;35.40;12.10;;;;;;;6.28;100.00;101433.09;6177769;28;20058;-74
2022/11/14 06:15:39;;;;;;;30.88;11.60;;;;;;;6.30;100.00;101439.13;6177839;28;20054;-75
2022/11/14 06:18:41;;;;;;;31.17;11.93;;;;;;;6.29;100.00;101432.19;6177909;28;20047;-74
2022/11/14 06:21:43;;;;;;;31.27;11.85;;;;;;;6.27;100.00;101435.75;6177282;28;20054;-74
2022/11/14 06:24:46;;;;;;;31.27;10.50;;;;;;;6.27;100.00;101438.34;6177448;28;20054;-74
2022/11/14 06:27:47;;;;;;;32.78;12.73;;;;;;;6.31;100.00;101437.34;6177699;28;20055;-74
2022/11/14 06:30:48;;;;;;;29.67;11.05;;;;;;;6.31;100.00;101432.13;6177196;28;20499;-74
2022/11/14 06:33:50;;;;;;;35.38;13.02;;;;;;;6.26;100.00;101439.22;6177076;28;20054;-75
2022/11/14 06:36:52;;;;;;;34.70;11.60;;;;;;;6.28;100.00;101437.44;6177626;28;20061;-75
2022/11/14 06:39:55;;;;;;;34.38;12.57;;;;;;;6.28;100.00;101432.22;6176877;28;20058;-74
2022/11/14 06:42:56;;;;;;;36.85;12.77;;;;;;;6.28;100.00;101430.47;6177243;28;20043;-75
2022/11/14 06:45:57;;;;;;;36.85;11.75;;;;;;;6.27;100.00;101430.53;6176812;28;20055;-73
2022/11/14 06:48:59;;;;;;;33.53;11.25;;;;;;;6.27;100.00;101433.13;6177480;28;20503;-74
2022/11/14 06:52:00;;;;;;;45.70;13.45;;;;;;;6.29;100.00;101437.41;6176654;28;20058;-75
2022/11/14 06:55:03;;;;;;;41.20;12.73;;;;;;;6.29;100.00;101431.34;6176565;28;20077;-74
2022/11/14 06:58:05;;;;;;;33.42;11.40;;;;;;;6.28;100.00;101425.25;6176721;28;20051;-75
2022/11/14 07:01:08;;;;;;;36.17;14.23;;;;;;;6.29;100.00;101424.34;6176431;28;20051;-73
2022/11/14 07:04:09;;;;;;;34.20;12.77;;;;;;;6.31;100.00;101419.97;6176454;28;20061;-73
2022/11/14 07:07:11;;;;;;;28.90;11.38;;;;;;;6.33;100.00;101409.47;6176722;28;20097;-75
2022/11/14 07:10:14;;;;;;;32.80;12.80;;;;;;;6.32;100.00;101408.63;6176371;28;20047;-74
2022/11/14 07:13:15;;;;;;;30.02;12.02;;;;;;;6.36;100.00;101406.81;6167273;28;20046;-74
2022/11/14 07:16:17;;;;;;;36.20;12.40;;;;;;;6.37;100.00;101405.91;6154949;28;20047;-74
2022/11/14 07:19:18;;;;;;;37.30;12.80;;;;;;;6.37;100.00;101410.28;6152080;28;20051;-74
2022/11/14 07:22:20;;;;;;;35.78;11.90;;;;;;;6.35;100.00;101405.06;6152262;28;20492;-75
2022/11/14 07:25:22;;;;;;;27.10;11.18;;;;;;;6.35;100.00;101412.91;6153107;28;20050;-74
2022/11/14 07:28:24;;;;;;;49.30;13.35;;;;;;;6.37;100.00;101405.91;6161117;28;20047;-75
2022/11/14 07:31:25;;;;;;;30.52;11.57;;;;;;;6.38;100.00;101405.00;6163123;28;20051;-74
2022/11/14 07:34:27;;;;;;;32.72;11.77;;;;;;;6.40;100.00;101411.03;6164251;28;20065;-74
2022/11/14 07:37:28;;;;;;;35.10;11.90;;;;;;;6.40;100.00;101421.47;6162656;28;20062;-75
2022/11/14 07:40:31;;;;;;;37.08;12.70;;;;;;;6.38;100.00;101409.38;6159093;28;20074;-74
2022/11/14 07:43:32;;;;;;;36.65;12.52;;;;;;;6.40;100.00;101412.78;6151850;28;20058;-74
2022/11/14 07:46:34;;;;;;;35.53;12.07;;;;;;;6.43;100.00;101408.34;6151514;28;20074;-75
2022/11/14 07:49:35;;;;;;;32.15;11.93;;;;;;;6.45;100.00;101398.75;6172346;28;20054;-74
2022/11/14 07:52:37;;;;;;;34.17;13.40;;;;;;;6.47;100.00;101403.91;6175415;28;20495;-75
2022/11/14 07:55:39;;;;;;;40.00;13.00;;;;;;;6.47;100.00;101407.38;6175211;28;20055;-76
2022/11/14 07:58:42;;;;;;;29.98;10.60;;;;;;;6.44;100.00;101407.44;6167820;28;20060;-73
2022/11/14 08:01:43;;;;;;;35.97;11.18;;;;;;;6.37;100.00;101405.91;6175187;28;20454;-74
2022/11/14 08:04:44;;;;;;;34.25;11.88;;;;;;;6.35;100.00;101399.84;6175240;28;20511;-75
2022/11/14 08:07:46;;;;;;;38.15;10.95;;;;;;;6.33;100.00;101401.66;6175462;28;20047;-73
2022/11/14 08:10:49;;;;;;;33.78;12.55;;;;;;;6.31;100.00;101413.88;6169251;28;20055;-75
2022/11/14 08:13:50;;;;;;;35.35;12.30;;;;;;;6.29;100.00;101407.84;6165548;28;20055;-74
2022/11/14 08:16:52;;;;;;;32.08;11.52;;;;;;;6.32;100.00;101406.03;6151227;28;20055;-74
2022/11/14 08:19:53;;;;;;;45.78;13.65;;;;;;;6.34;100.00;101405.97;6173947;28;20051;-74
2022/11/14 08:23:02;;;;;;;33.10;11.60;;;;;;;6.35;100.00;101403.31;6174757;28;20053;-75
2022/11/14 08:26:05;;;;;;;31.90;12.07;;;;;;;6.31;100.00;101413.88;6170372;28;20098;-75
2022/11/14 08:29:06;;;;;;;32.25;12.02;;;;;;;6.26;100.00;101418.34;6150777;28;20323;-74
2022/11/14 08:32:08;;;;;;;43.10;13.02;;;;;;;6.28;100.00;101425.25;6150644;28;20065;-74
2022/11/14 08:35:09;;;;;;;35.60;12.40;;;;;;;6.34;100.00;101408.56;6150280;28;20050;-74
2022/11/14 08:38:11;;;;;;;37.13;12.70;;;;;;;6.40;100.00;101415.38;6150733;28;20061;-73
2022/11/14 08:41:14;;;;;;;29.58;12.05;;;;;;;6.42;100.00;101404.03;6150234;28;20099;-74
2022/11/14 08:44:16;;;;;;;40.33;14.40;;;;;;;6.48;100.00;101406.47;6163594;28;20046;-74
2022/11/14 08:47:17;;;;;;;32.38;12.05;;;;;;;6.54;100.00;101408.06;6174552;28;20057;-74
2022/11/14 08:50:19;;;;;;;32.80;11.77;;;;;;;6.57;100.00;101408.84;6174075;28;20055;-74
2022/11/14 08:53:20;;;;;;;29.63;12.57;;;;;;;6.54;100.00;101413.28;6174430;28;20070;-74
2022/11/14 08:56:23;;;;;;;33.75;12.48;;;;;;;6.53;100.00;101414.19;6174035;28;20073;-72
2022/11/14 08:59:24;;;;;;;37.33;11.50;;;;;;;6.48;100.00;101411.69;6174262;28;20046;-73
2022/11/14 09:02:26;;;;;;;38.83;11.95;;;;;;;6.53;100.00;101406.34;6173606;28;20050;-73
2022/11/14 09:05:27;;;;;;;29.88;12.40;;;;;;;6.49;100.00;101408.19;6173839;28;20545;-74
2022/11/14 09:08:29;;;;;;;37.70;12.75;;;;;;;6.51;100.00;101400.31;6173879;28;20065;-73
2022/11/14 09:11:32;;;;;;;30.65;11.27;;;;;;;6.55;100.00;101410.66;6173634;28;20204;-74
2022/11/14 09:14:34;;;;;;;30.80;11.93;;;;;;;6.57;100.00;101403.63;6173463;28;20077;-73
2022/11/14 09:17:35;;;;;;;30.08;11.77;;;;;;;6.65;100.00;101406.03;6174182;28;20054;-73
2022/11/14 09:20:37;;;;;;;29.83;11.18;;;;;;;6.62;100.00;101403.50;6173043;28;20551;-74
2022/11/14 09:23:38;;;;;;;31.23;11.98;;;;;;;6.57;100.00;101406.22;6174088;28;20054;-73
2022/11/14 09:26:41;;;;;;;37.00;13.27;;;;;;;6.57;100.00;101403.63;6173442;28;20057;-74
2022/11/14 09:29:42;;;;;;;34.15;12.60;;;;;;;6.60;100.00;101405.31;6173886;28;20050;-72
2022/11/14 09:32:44;;;;;;;33.47;11.43;;;;;;;6.64;100.00;101401.72;6173633;28;20050;-73
2022/11/14 09:35:45;;;;;;;35.00;11.10;;;;;;;6.66;100.00;101393.84;6173501;28;20065;-73
2022/11/14 09:38:47;;;;;;;36.10;12.48;;;;;;;6.71;100.00;101403.25;6173877;28;20055;-73
2022/11/14 09:42:11;;;;;;;27.38;11.35;;;;;;;6.76;100.00;101397.91;6172891;28;20051;-73
2022/11/14 09:45:16;;;;;;;31.15;11.73;;;;;;;6.73;100.00;101401.47;6173405;28;20050;-75
2022/11/14 09:48:20;;;;;;;32.08;12.02;;;;;;;6.78;100.00;101393.50;6173467;28;20061;-73
2022/11/14 09:51:25;;;;;;;32.17;12.63;;;;;;;6.82;100.00;101397.75;6173113;28;20058;-75
2022/11/14 09:54:28;;;;;;;31.15;11.68;;;;;;;6.80;100.00;101384.72;6173131;28;20050;-74
2022/11/14 09:57:31;;;;;;;32.88;12.10;;;;;;;6.85;100.00;101390.66;6173459;28;20430;-73
2022/11/14 10:00:44;;;;;;;35.25;12.68;;;;;;;6.86;100.00;101378.50;6172795;28;20057;-74
2022/11/14 10:03:53;;;;;;;34.03;12.50;;;;;;;6.88;100.00;101381.91;6173053;28;20205;-73
2022/11/14 10:07:04;;;;;;;30.05;10.90;;;;;;;6.91;100.00;101374.00;6173169;28;20054;-73
2022/11/14 10:10:14;;;;;;;28.92;10.88;;;;;;;6.91;100.00;101368.75;6172755;28;20503;-74
2022/11/14 10:13:30;;;;;;;32.67;10.65;;;;;;;6.92;100.00;101352.19;6173160;28;20051;-74
2022/11/14 10:16:42;;;;;;;31.20;11.70;;;;;;;6.89;100.00;101347.03;6168254;28;20062;-74
2022/11/14 10:19:51;;;;;;;28.90;10.35;;;;;;;6.91;100.00;101347.00;6160179;28;20082;-74
2022/11/14 10:23:05;;;;;;;29.00;10.98;;;;;;;6.95;100.00;101340.78;6159013;28;20483;-73
2022/11/14 10:26:13;;;;;;;30.92;11.32;;;;;;;7.01;100.00;101335.38;6173032;28;20141;-73
2022/11/14 10:29:52;;;;;;;35.65;12.57;;;;;;;7.07;100.00;101320.38;6172988;28;20488;-73
2022/11/14 10:33:25;;;;;;;34.83;12.07;;;;;;;7.04;100.00;101311.75;6174586;28;20043;-74
2022/11/14 10:36:40;;;;;;;30.15;11.05;;;;;;;7.06;100.00;101317.81;6167055;28;20051;-73
2022/11/14 10:39:47;;;;;;;22.95;9.73;;;;;;;7.10;100.00;101315.06;6176899;28;20507;-75
2022/11/14 10:42:51;;;;;;;39.70;12.15;;;;;;;7.20;100.00;101314.78;6177558;28;20057;-73
2022/11/14 10:46:01;;;;;;;30.05;11.60;;;;;;;7.23;100.00;101301.63;6176182;28;20046;-73
2022/11/14 10:49:16;;;;;;;28.25;11.60;;;;;;;7.22;100.00;101302.50;6177047;28;20059;-74
2022/11/14 10:52:21;;;;;;;27.35;11.02;;;;;;;7.33;100.00;101301.28;6176531;28;20057;-73
2022/11/14 10:55:23;;;;;;;22.92;10.40;;;;;;;7.45;100.00;101293.94;6176704;28;20057;-73
2022/11/14 10:58:25;;;;;;;29.90;11.73;;;;;;;7.47;100.00;101307.84;6176853;28;20078;-73
2022/11/14 11:01:37;;;;;;;38.17;12.00;;;;;;;7.54;100.00;101298.88;6176478;28;20047;-73
2022/11/14 11:04:39;;;;;;;32.67;12.07;;;;;;;7.67;100.00;101289.75;6176242;28;20449;-73
2022/11/14 11:14:23;;;;;;;33.63;11.80;;;;;;;8.47;100.00;101263.50;6175901;28;20051;-73
2022/11/14 11:17:26;;;;;;;30.77;12.00;;;;;;;8.53;100.00;101260.66;6176511;28;20054;-74
2022/11/14 11:20:32;;;;;;;29.70;12.18;;;;;;;8.51;100.00;101278.19;6175876;28;20279;-74
2022/11/14 11:23:34;;;;;;;33.10;12.18;;;;;;;8.48;100.00;101279.16;6175996;28;20047;-73
2022/11/14 11:26:36;;;;;;;30.63;11.73;;;;;;;8.51;100.00;101270.34;6176140;28;20047;-72
2022/11/14 11:29:37;;;;;;;31.33;10.50;;;;;;;8.46;100.00;101269.66;6175781;28;20058;-74
2022/11/14 11:32:40;;;;;;;26.90;10.45;;;;;;;8.38;100.00;101275.16;6175858;28;20053;-73
2022/11/14 11:35:43;;;;;;;33.65;11.50;;;;;;;8.29;100.00;101257.97;6175525;28;20510;-74
2022/11/14 11:38:47;;;;;;;27.83;10.30;;;;;;;8.15;100.00;101268.09;6175913;28;20057;-73
2022/11/14 11:41:49;;;;;;;32.65;10.60;;;;;;;8.23;100.00;101246.88;6175027;28;20137;-74
2022/11/14 11:44:58;;;;;;;22.25;9.50;;;;;;;8.29;100.00;101257.13;6174144;28;20055;-73
2022/11/14 11:48:06;;;;;;;22.45;10.40;;;;;;;8.47;100.00;101253.88;6175597;28;20065;-74
2022/11/14 11:51:16;;;;;;;31.50;12.05;;;;;;;8.59;100.00;101255.19;6175630;28;20046;-73
2022/11/14 11:54:20;;;;;;;28.70;10.48;;;;;;;8.59;100.00;101248.19;6175150;28;20039;-73
2022/11/14 11:57:28;;;;;;;23.40;9.82;;;;;;;8.61;100.00;101245.50;6175279;28;20051;-73
2022/11/14 12:00:30;;;;;;;20.42;10.18;;;;;;;8.52;100.00;101245.84;6175184;28;20062;-73
2022/11/14 12:03:34;;;;;;;25.45;11.48;;;;;;;8.35;100.00;101255.13;6175248;28;20043;-72
2022/11/14 12:06:42;;;;;;;25.17;9.80;;;;;;;8.30;100.00;101246.59;6175189;28;20047;-72
2022/11/14 12:09:44;;;;;;;22.98;9.73;;;;;;;8.37;100.00;101242.03;6174916;28;20050;-72
2022/11/14 12:13:03;;;;;;;27.88;10.50;;;;;;;8.38;100.00;101238.50;6175486;28;20051;-73
2022/11/14 12:16:15;;;;;;;24.30;9.18;;;;;;;8.39;100.00;101233.19;6174582;28;20141;-74
2022/11/14 12:20:04;;;;;;;22.38;8.93;;;;;;;8.38;100.00;101249.81;6174224;28;20074;-73
2022/11/14 12:23:37;;;;;;;23.88;9.77;;;;;;;8.33;100.00;101233.38;6123990;29;20043;-73
2022/11/14 12:26:59;;;;;;;27.77;10.43;;;;;;;8.28;100.00;101232.72;6128597;28;20059;-73
2022/11/14 12:30:13;;;;;;;25.80;11.07;;;;;;;8.32;100.00;101230.84;6174206;28;20422;-73
2022/11/14 12:33:22;;;;;;;23.52;9.55;;;;;;;8.29;100.00;101231.78;6174281;28;20487;-72
2022/11/14 12:36:28;;;;;;;25.10;10.45;;;;;;;8.31;100.00;101234.34;6174489;28;20046;-73
2022/11/14 12:39:32;;;;;;;29.40;10.43;;;;;;;8.32;100.00;101231.69;6174720;28;20055;-73
2022/11/14 12:42:34;;;;;;;20.50;9.43;;;;;;;8.34;100.00;101215.91;6174249;28;20058;-72
2022/11/14 12:45:58;;;;;;;24.25;8.77;;;;;;;8.38;100.00;101215.78;6174544;28;20055;-72
2022/11/14 12:48:59;;;;;;;27.25;10.60;;;;;;;8.41;100.00;101211.34;6168445;28;20058;-72
2022/11/14 12:52:01;;;;;;;22.13;9.68;;;;;;;8.46;100.00;101225.13;6174142;28;20057;-72
2022/11/14 12:55:04;;;;;;;26.58;10.30;;;;;;;8.49;100.00;101219.75;6173690;28;20047;-72
2022/11/14 12:58:08;;;;;;;23.52;9.02;;;;;;;8.47;100.00;101214.59;6174048;28;20086;-73
2022/11/14 13:01:24;;;;;;;26.35;9.45;;;;;;;8.45;100.00;101218.16;6174021;28;20073;-72
2022/11/14 13:04:36;;;;;;;20.80;9.20;;;;;;;8.47;100.00;101214.59;6173799;28;20043;-73
2022/11/14 13:07:48;;;;;;;21.83;8.77;;;;;;;8.47;100.00;101211.97;6173873;28;20620;-74
2022/11/14 13:10:52;;;;;;;21.88;9.57;;;;;;;8.45;100.00;101203.31;6171634;28;20053;-73
2022/11/14 13:24:04;;;;;;;22.23;9.93;;;;;;;8.31;100.00;101177.63;6173552;28;20466;-74
2022/11/14 13:27:26;;;;;;;23.67;9.23;;;;;;;8.27;100.00;101172.53;6173562;28;20050;-74
2022/11/14 13:33:40;;;;;;;25.08;9.00;;;;;;;8.24;100.00;101156.94;6235924;23;20734;-71
2022/11/14 13:36:51;;;;;;;19.25;8.27;;;;;;;8.22;100.00;101158.75;6197704;28;20506;-71
2022/11/14 13:40:04;;;;;;;25.75;9.05;;;;;;;8.21;100.00;101151.81;6197326;28;20050;-72
2022/11/14 13:43:20;;;;;;;21.30;8.80;;;;;;;8.20;100.00;101147.50;6197638;28;20057;-71
2022/11/14 13:46:33;;;;;;;25.13;9.52;;;;;;;8.22;100.00;101150.88;6197538;28;20046;-70
2022/11/14 13:49:52;;;;;;;25.48;9.07;;;;;;;8.23;100.00;101139.53;6198520;28;20054;-72
2022/11/14 13:52:54;;;;;;;;;;;;;;;8.24;100.00;101138.63;6190227;28;20513;-71
2022/11/14 13:56:01;;;;;;;18.00;8.35;;;;;;;8.25;100.00;101141.16;6200779;28;19921;-72
2022/11/14 13:59:31;;;;;;;19.08;8.65;;;;;;;8.23;100.00;101134.28;6197551;28;20046;-71
2022/11/14 14:02:48;;;;;;;21.35;8.27;;;;;;;8.18;100.00;101138.84;6191675;28;20055;-71
2022/11/14 14:06:07;;;;;;;22.08;9.77;;;;;;;8.22;100.00;101130.81;6194539;28;20050;-72
2022/11/14 14:09:26;;;;;;;18.30;7.65;;;;;;;8.20;100.00;101131.78;6200886;28;20050;-71
2022/11/14 14:12:46;;;;;;;19.20;8.63;;;;;;;8.16;100.00;101133.66;6201638;28;20054;-72
2022/11/14 14:16:01;;;;;;;22.30;9.15;;;;;;;8.14;100.00;101133.72;6201711;28;20052;-72
2022/11/14 14:19:10;;;;;;;18.60;7.90;;;;;;;8.15;100.00;101134.56;6201783;28;20054;-72
2022/11/14 14:22:17;;;;;;;18.08;7.82;;;;;;;8.14;100.00;101132.88;6201295;28;20430;-72